Terminal Aerodrome Forecast
Issued by NWS

Home | Current Version | Previous Version | Text Only | Print | Product List | Glossary On
Versions: 1 2 3 4 5 6 7 8 9 10 11 12 13 14 15 16 17 18 19 20 21 22 23 24 25 26 27 28 29 30 31
039
FTUS44 KFWD 250918 AAA
TAFGKY
TAF AMD
KGKY 250918Z 2509/2606 17015KT P6SM BKN025
      TEMPO 2509/2512 BKN015
     FM251200 18013KT P6SM OVC012
     FM251700 18016KT P6SM BKN025
     FM252200 16015KT P6SM SCT030 BKN060
     FM260400 17014KT P6SM SCT015 BKN035=

USA.gov is the U.S. government's official web portal to all federal, state and local government web resources and services.